Syracuse, Indiana
Current Conditions -  °F | °C
As of 5:53 PM on Tuesday 21 Oct 2014 (Local Time) from KGSH Reporting Station
Overcast Overcast  
Wind Chill: 44°   Ceiling: 3400
Heat Index: 49°   Visibility: 10mi
Dew Point: 39°   Wind: 12mph
Humidity: 69%   Direction: 10°N
Pressure: 30.15"   Gusts: NA
Location:  41.43°N, 85.75°W
Report Text: KGSH 212153Z AUTO 01010KT 10SM OVC034 09/04 A3015 RMK AO2 SLP212 T00940039
Loading
Personal Weather Stations






























Interactive Weather Map
Tropical Storm Tracking
New forecast layout! Learn more

10-Day Weather Forecast

Advertisements
Track Severe Weather on mobile